sensor_id;sensor_type;location;lat;lon;timestamp;temperature;humidity
78184;DHT22;67442;44.570;18.610;2023-06-10T00:02:25;24.50;69.80
78184;DHT22;67442;44.570;18.610;2023-06-10T00:04:52;24.50;69.80
78184;DHT22;67442;44.570;18.610;2023-06-10T00:07:20;24.50;69.80
78184;DHT22;67442;44.570;18.610;2023-06-10T00:09:47;24.50;69.90
78184;DHT22;67442;44.570;18.610;2023-06-10T00:12:19;24.60;69.90
78184;DHT22;67442;44.570;18.610;2023-06-10T00:14:50;24.50;69.90
78184;DHT22;67442;44.570;18.610;2023-06-10T00:17:20;24.50;70.00
78184;DHT22;67442;44.570;18.610;2023-06-10T00:19:50;24.50;70.00
78184;DHT22;67442;44.570;18.610;2023-06-10T00:22:17;24.60;70.00
78184;DHT22;67442;44.570;18.610;2023-06-10T00:24:48;24.50;70.00
78184;DHT22;67442;44.570;18.610;2023-06-10T00:27:19;24.60;70.10
78184;DHT22;67442;44.570;18.610;2023-06-10T00:29:51;24.50;70.00
78184;DHT22;67442;44.570;18.610;2023-06-10T00:32:18;24.60;70.10
78184;DHT22;67442;44.570;18.610;2023-06-10T00:34:49;24.60;70.10
78184;DHT22;67442;44.570;18.610;2023-06-10T00:37:16;24.60;70.10
78184;DHT22;67442;44.570;18.610;2023-06-10T00:39:44;24.60;70.20
78184;DHT22;67442;44.570;18.610;2023-06-10T00:42:15;24.60;70.20
78184;DHT22;67442;44.570;18.610;2023-06-10T00:44:42;24.60;70.20
78184;DHT22;67442;44.570;18.610;2023-06-10T00:47:13;24.60;70.20
78184;DHT22;67442;44.570;18.610;2023-06-10T00:49:40;24.50;70.10
78184;DHT22;67442;44.570;18.610;2023-06-10T00:52:08;24.60;70.20
78184;DHT22;67442;44.570;18.610;2023-06-10T00:54:37;24.60;70.70
78184;DHT22;67442;44.570;18.610;2023-06-10T00:57:06;24.50;70.20
78184;DHT22;67442;44.570;18.610;2023-06-10T00:59:33;24.60;70.20
78184;DHT22;67442;44.570;18.610;2023-06-10T01:02:00;24.60;70.20
78184;DHT22;67442;44.570;18.610;2023-06-10T01:04:28;24.60;70.30
78184;DHT22;67442;44.570;18.610;2023-06-10T01:10:05;24.60;70.30
78184;DHT22;67442;44.570;18.610;2023-06-10T01:12:44;24.60;70.30
78184;DHT22;67442;44.570;18.610;2023-06-10T01:15:16;24.60;70.40
78184;DHT22;67442;44.570;18.610;2023-06-10T01:18:12;24.50;70.30
78184;DHT22;67442;44.570;18.610;2023-06-10T01:20:42;24.60;70.40
78184;DHT22;67442;44.570;18.610;2023-06-10T01:23:10;24.60;70.40
78184;DHT22;67442;44.570;18.610;2023-06-10T01:25:42;24.60;70.50
78184;DHT22;67442;44.570;18.610;2023-06-10T01:33:18;24.60;70.50
78184;DHT22;67442;44.570;18.610;2023-06-10T01:35:50;24.60;70.50
78184;DHT22;67442;44.570;18.610;2023-06-10T01:38:19;24.60;70.60
78184;DHT22;67442;44.570;18.610;2023-06-10T01:40:48;24.60;70.60
78184;DHT22;67442;44.570;18.610;2023-06-10T01:43:16;24.60;70.70
78184;DHT22;67442;44.570;18.610;2023-06-10T01:45:43;24.60;70.70
78184;DHT22;67442;44.570;18.610;2023-06-10T01:48:10;24.60;70.70
78184;DHT22;67442;44.570;18.610;2023-06-10T01:50:37;24.60;70.70
78184;DHT22;67442;44.570;18.610;2023-06-10T01:53:05;24.60;70.70
78184;DHT22;67442;44.570;18.610;2023-06-10T01:55:36;24.60;70.80
78184;DHT22;67442;44.570;18.610;2023-06-10T01:58:07;24.60;70.80
78184;DHT22;67442;44.570;18.610;2023-06-10T02:00:38;24.60;70.80
78184;DHT22;67442;44.570;18.610;2023-06-10T02:03:05;24.60;70.80
78184;DHT22;67442;44.570;18.610;2023-06-10T02:05:32;24.60;70.80
78184;DHT22;67442;44.570;18.610;2023-06-10T02:08:00;24.60;70.80
78184;DHT22;67442;44.570;18.610;2023-06-10T02:10:27;24.60;70.80
78184;DHT22;67442;44.570;18.610;2023-06-10T02:12:54;24.60;70.90
78184;DHT22;67442;44.570;18.610;2023-06-10T02:15:21;24.60;70.90
78184;DHT22;67442;44.570;18.610;2023-06-10T02:17:52;24.60;71.10
78184;DHT22;67442;44.570;18.610;2023-06-10T02:20:23;24.60;71.00
78184;DHT22;67442;44.570;18.610;2023-06-10T02:22:51;24.60;71.10
78184;DHT22;67442;44.570;18.610;2023-06-10T02:25:21;24.60;71.00
78184;DHT22;67442;44.570;18.610;2023-06-10T02:27:53;24.60;71.00
78184;DHT22;67442;44.570;18.610;2023-06-10T02:30:21;24.60;71.00
78184;DHT22;67442;44.570;18.610;2023-06-10T02:32:48;24.60;71.10
78184;DHT22;67442;44.570;18.610;2023-06-10T02:35:17;24.60;71.10
78184;DHT22;67442;44.570;18.610;2023-06-10T02:37:44;24.60;71.20
78184;DHT22;67442;44.570;18.610;2023-06-10T02:40:11;24.60;71.20
78184;DHT22;67442;44.570;18.610;2023-06-10T02:42:39;24.60;71.20
78184;DHT22;67442;44.570;18.610;2023-06-10T02:45:08;24.60;71.30
78184;DHT22;67442;44.570;18.610;2023-06-10T02:47:37;24.50;71.20
78184;DHT22;67442;44.570;18.610;2023-06-10T02:50:04;24.60;71.20
78184;DHT22;67442;44.570;18.610;2023-06-10T02:52:31;24.60;71.30
78184;DHT22;67442;44.570;18.610;2023-06-10T02:55:03;24.60;71.40
78184;DHT22;67442;44.570;18.610;2023-06-10T02:57:31;24.60;71.40
78184;DHT22;67442;44.570;18.610;2023-06-10T02:59:58;24.60;71.50
78184;DHT22;67442;44.570;18.610;2023-06-10T03:02:28;24.60;71.50
78184;DHT22;67442;44.570;18.610;2023-06-10T03:04:56;24.60;71.50
78184;DHT22;67442;44.570;18.610;2023-06-10T03:07:27;24.60;71.50
78184;DHT22;67442;44.570;18.610;2023-06-10T03:09:54;24.60;71.50
78184;DHT22;67442;44.570;18.610;2023-06-10T03:12:21;24.60;71.50
78184;DHT22;67442;44.570;18.610;2023-06-10T03:14:48;24.60;72.30
78184;DHT22;67442;44.570;18.610;2023-06-10T03:17:15;24.60;71.60
78184;DHT22;67442;44.570;18.610;2023-06-10T03:19:42;24.60;71.50
78184;DHT22;67442;44.570;18.610;2023-06-10T03:22:12;24.60;71.60
78184;DHT22;67442;44.570;18.610;2023-06-10T03:24:39;24.60;71.60
78184;DHT22;67442;44.570;18.610;2023-06-10T03:27:09;24.60;71.60
78184;DHT22;67442;44.570;18.610;2023-06-10T03:29:37;24.60;71.70
78184;DHT22;67442;44.570;18.610;2023-06-10T03:32:08;24.60;71.70
78184;DHT22;67442;44.570;18.610;2023-06-10T03:34:36;24.60;71.70
78184;DHT22;67442;44.570;18.610;2023-06-10T03:37:07;24.60;71.70
78184;DHT22;67442;44.570;18.610;2023-06-10T03:39:34;24.60;71.80
78184;DHT22;67442;44.570;18.610;2023-06-10T03:42:07;24.50;71.70
78184;DHT22;67442;44.570;18.610;2023-06-10T03:44:34;24.60;71.80
78184;DHT22;67442;44.570;18.610;2023-06-10T03:47:03;24.60;72.60
78184;DHT22;67442;44.570;18.610;2023-06-10T03:49:30;24.60;71.80
78184;DHT22;67442;44.570;18.610;2023-06-10T03:51:57;24.60;71.90
78184;DHT22;67442;44.570;18.610;2023-06-10T03:54:25;24.60;71.90
78184;DHT22;67442;44.570;18.610;2023-06-10T03:56:52;24.60;72.80
78184;DHT22;67442;44.570;18.610;2023-06-10T03:59:20;24.60;71.90
78184;DHT22;67442;44.570;18.610;2023-06-10T04:01:47;24.60;71.90
78184;DHT22;67442;44.570;18.610;2023-06-10T04:04:14;24.60;71.90
78184;DHT22;67442;44.570;18.610;2023-06-10T04:06:44;24.60;71.90
78184;DHT22;67442;44.570;18.610;2023-06-10T04:09:12;24.60;72.00
78184;DHT22;67442;44.570;18.610;2023-06-10T04:11:45;24.60;72.00
78184;DHT22;67442;44.570;18.610;2023-06-10T04:14:12;24.60;72.00
78184;DHT22;67442;44.570;18.610;2023-06-10T04:16:39;24.60;71.90
78184;DHT22;67442;44.570;18.610;2023-06-10T04:19:07;24.50;71.90
78184;DHT22;67442;44.570;18.610;2023-06-10T04:21:34;24.60;71.90
78184;DHT22;67442;44.570;18.610;2023-06-10T04:24:05;24.60;71.90
78184;DHT22;67442;44.570;18.610;2023-06-10T04:26:31;24.60;72.00
78184;DHT22;67442;44.570;18.610;2023-06-10T04:29:00;24.60;72.10
78184;DHT22;67442;44.570;18.610;2023-06-10T04:31:31;24.60;72.80
78184;DHT22;67442;44.570;18.610;2023-06-10T04:33:59;24.60;72.10
78184;DHT22;67442;44.570;18.610;2023-06-10T04:36:27;24.60;72.10
78184;DHT22;67442;44.570;18.610;2023-06-10T04:38:55;24.60;72.10
78184;DHT22;67442;44.570;18.610;2023-06-10T04:41:23;24.60;72.10
78184;DHT22;67442;44.570;18.610;2023-06-10T04:43:49;24.60;72.00
78184;DHT22;67442;44.570;18.610;2023-06-10T04:46:17;24.60;71.90
78184;DHT22;67442;44.570;18.610;2023-06-10T04:48:45;24.60;71.90
78184;DHT22;67442;44.570;18.610;2023-06-10T04:51:16;24.60;72.00
78184;DHT22;67442;44.570;18.610;2023-06-10T04:53:43;24.60;71.90
78184;DHT22;67442;44.570;18.610;2023-06-10T04:56:11;24.60;71.90
78184;DHT22;67442;44.570;18.610;2023-06-10T04:58:43;24.60;71.90
78184;DHT22;67442;44.570;18.610;2023-06-10T05:01:11;24.60;71.80
78184;DHT22;67442;44.570;18.610;2023-06-10T05:03:38;24.60;71.80
78184;DHT22;67442;44.570;18.610;2023-06-10T05:06:05;24.60;71.80
78184;DHT22;67442;44.570;18.610;2023-06-10T05:08:33;24.60;71.80
78184;DHT22;67442;44.570;18.610;2023-06-10T05:11:03;24.60;71.80
78184;DHT22;67442;44.570;18.610;2023-06-10T05:13:34;24.60;71.70
78184;DHT22;67442;44.570;18.610;2023-06-10T05:16:01;24.60;71.80
78184;DHT22;67442;44.570;18.610;2023-06-10T05:18:28;24.60;71.80
78184;DHT22;67442;44.570;18.610;2023-06-10T05:20:56;24.60;71.70
78184;DHT22;67442;44.570;18.610;2023-06-10T05:23:23;24.60;71.70
78184;DHT22;67442;44.570;18.610;2023-06-10T05:25:54;24.60;71.60
78184;DHT22;67442;44.570;18.610;2023-06-10T05:28:22;24.60;71.60
78184;DHT22;67442;44.570;18.610;2023-06-10T05:30:49;24.60;71.60
78184;DHT22;67442;44.570;18.610;2023-06-10T05:33:16;24.60;71.70
78184;DHT22;67442;44.570;18.610;2023-06-10T05:35:42;24.60;71.60
78184;DHT22;67442;44.570;18.610;2023-06-10T05:38:10;24.60;71.60
78184;DHT22;67442;44.570;18.610;2023-06-10T05:40:37;24.60;71.60
78184;DHT22;67442;44.570;18.610;2023-06-10T05:43:07;24.60;71.60
78184;DHT22;67442;44.570;18.610;2023-06-10T05:45:35;24.60;71.60
78184;DHT22;67442;44.570;18.610;2023-06-10T05:48:07;24.60;71.70
78184;DHT22;67442;44.570;18.610;2023-06-10T05:50:39;24.60;71.60
78184;DHT22;67442;44.570;18.610;2023-06-10T05:53:06;24.60;71.60
78184;DHT22;67442;44.570;18.610;2023-06-10T05:55:44;24.60;71.70
78184;DHT22;67442;44.570;18.610;2023-06-10T05:58:13;24.60;71.60
78184;DHT22;67442;44.570;18.610;2023-06-10T06:00:40;24.60;71.60
78184;DHT22;67442;44.570;18.610;2023-06-10T06:03:09;24.60;71.60
78184;DHT22;67442;44.570;18.610;2023-06-10T06:05:40;24.60;71.60
78184;DHT22;67442;44.570;18.610;2023-06-10T06:08:07;24.60;71.60
78184;DHT22;67442;44.570;18.610;2023-06-10T06:10:34;24.60;71.60
78184;DHT22;67442;44.570;18.610;2023-06-10T06:13:01;24.60;71.60
78184;DHT22;67442;44.570;18.610;2023-06-10T06:15:28;24.60;71.60
78184;DHT22;67442;44.570;18.610;2023-06-10T06:17:55;24.60;71.60
78184;DHT22;67442;44.570;18.610;2023-06-10T06:20:22;24.60;71.60
78184;DHT22;67442;44.570;18.610;2023-06-10T06:22:50;24.70;71.70
78184;DHT22;67442;44.570;18.610;2023-06-10T06:25:17;24.60;71.70
78184;DHT22;67442;44.570;18.610;2023-06-10T06:27:45;24.70;71.80
78184;DHT22;67442;44.570;18.610;2023-06-10T06:30:11;24.70;71.80
78184;DHT22;67442;44.570;18.610;2023-06-10T06:32:38;24.70;71.80
78184;DHT22;67442;44.570;18.610;2023-06-10T06:35:07;24.70;71.90
78184;DHT22;67442;44.570;18.610;2023-06-10T06:37:34;24.70;72.60
78184;DHT22;67442;44.570;18.610;2023-06-10T06:40:01;24.60;71.80
78184;DHT22;67442;44.570;18.610;2023-06-10T06:42:29;24.70;71.90
78184;DHT22;67442;44.570;18.610;2023-06-10T06:44:57;24.70;71.90
78184;DHT22;67442;44.570;18.610;2023-06-10T06:47:24;24.70;71.90
78184;DHT22;67442;44.570;18.610;2023-06-10T06:49:53;24.70;71.90
78184;DHT22;67442;44.570;18.610;2023-06-10T06:52:20;24.60;71.90
78184;DHT22;67442;44.570;18.610;2023-06-10T06:54:48;24.70;71.90
78184;DHT22;67442;44.570;18.610;2023-06-10T06:57:19;24.60;71.90
78184;DHT22;67442;44.570;18.610;2023-06-10T06:59:46;24.60;71.90
78184;DHT22;67442;44.570;18.610;2023-06-10T07:02:18;24.70;71.90
78184;DHT22;67442;44.570;18.610;2023-06-10T07:04:45;24.70;72.00
78184;DHT22;67442;44.570;18.610;2023-06-10T07:07:14;24.70;72.00
78184;DHT22;67442;44.570;18.610;2023-06-10T07:09:41;24.70;71.90
78184;DHT22;67442;44.570;18.610;2023-06-10T07:12:10;24.70;72.00
78184;DHT22;67442;44.570;18.610;2023-06-10T07:14:37;24.70;72.20
78184;DHT22;67442;44.570;18.610;2023-06-10T07:17:04;24.70;72.10
78184;DHT22;67442;44.570;18.610;2023-06-10T07:19:36;24.70;71.90
78184;DHT22;67442;44.570;18.610;2023-06-10T07:22:03;24.70;71.60
78184;DHT22;67442;44.570;18.610;2023-06-10T07:24:31;24.70;71.50
78184;DHT22;67442;44.570;18.610;2023-06-10T07:26:58;24.70;71.60
78184;DHT22;67442;44.570;18.610;2023-06-10T07:29:26;24.70;71.60
78184;DHT22;67442;44.570;18.610;2023-06-10T07:31:53;24.70;70.90
78184;DHT22;67442;44.570;18.610;2023-06-10T07:34:24;24.70;70.70
78184;DHT22;67442;44.570;18.610;2023-06-10T07:36:51;24.70;70.60
78184;DHT22;67442;44.570;18.610;2023-06-10T07:39:18;24.70;70.20
78184;DHT22;67442;44.570;18.610;2023-06-10T07:41:46;24.70;69.90
78184;DHT22;67442;44.570;18.610;2023-06-10T07:44:18;24.70;69.50
78184;DHT22;67442;44.570;18.610;2023-06-10T07:46:46;24.70;69.40
78184;DHT22;67442;44.570;18.610;2023-06-10T07:49:13;24.60;69.70
78184;DHT22;67442;44.570;18.610;2023-06-10T07:51:40;24.70;69.70
78184;DHT22;67442;44.570;18.610;2023-06-10T07:54:07;24.70;69.70
78184;DHT22;67442;44.570;18.610;2023-06-10T07:56:34;24.70;69.40
78184;DHT22;67442;44.570;18.610;2023-06-10T07:59:05;24.70;69.10
78184;DHT22;67442;44.570;18.610;2023-06-10T08:01:36;24.60;68.70
78184;DHT22;67442;44.570;18.610;2023-06-10T08:04:06;24.60;69.00
78184;DHT22;67442;44.570;18.610;2023-06-10T08:06:37;24.60;69.80
78184;DHT22;67442;44.570;18.610;2023-06-10T08:09:04;24.70;70.10
78184;DHT22;67442;44.570;18.610;2023-06-10T08:11:31;24.60;70.70
78184;DHT22;67442;44.570;18.610;2023-06-10T08:13:58;24.70;70.00
78184;DHT22;67442;44.570;18.610;2023-06-10T08:16:30;24.70;69.70
78184;DHT22;67442;44.570;18.610;2023-06-10T08:19:01;24.70;69.20
78184;DHT22;67442;44.570;18.610;2023-06-10T08:21:28;24.70;69.80
78184;DHT22;67442;44.570;18.610;2023-06-10T08:23:55;24.60;70.10
78184;DHT22;67442;44.570;18.610;2023-06-10T08:26:23;24.60;70.40
78184;DHT22;67442;44.570;18.610;2023-06-10T08:28:50;24.60;70.50
78184;DHT22;67442;44.570;18.610;2023-06-10T08:31:21;24.60;70.10
78184;DHT22;67442;44.570;18.610;2023-06-10T08:33:48;24.60;70.50
78184;DHT22;67442;44.570;18.610;2023-06-10T08:36:16;24.60;70.60
78184;DHT22;67442;44.570;18.610;2023-06-10T08:38:43;24.60;70.60
78184;DHT22;67442;44.570;18.610;2023-06-10T08:41:13;24.70;70.30
78184;DHT22;67442;44.570;18.610;2023-06-10T08:46:45;24.70;70.80
78184;DHT22;67442;44.570;18.610;2023-06-10T08:49:18;24.70;70.90
78184;DHT22;67442;44.570;18.610;2023-06-10T08:52:09;24.60;70.50
78184;DHT22;67442;44.570;18.610;2023-06-10T08:54:39;24.60;70.50
78184;DHT22;67442;44.570;18.610;2023-06-10T08:57:09;24.60;70.40
78184;DHT22;67442;44.570;18.610;2023-06-10T08:59:38;24.60;70.40
78184;DHT22;67442;44.570;18.610;2023-06-10T09:02:08;24.70;70.70
78184;DHT22;67442;44.570;18.610;2023-06-10T09:04:37;24.60;70.70
78184;DHT22;67442;44.570;18.610;2023-06-10T09:07:05;24.60;70.70
78184;DHT22;67442;44.570;18.610;2023-06-10T09:09:33;24.70;70.90
78184;DHT22;67442;44.570;18.610;2023-06-10T09:12:01;24.60;70.80
78184;DHT22;67442;44.570;18.610;2023-06-10T09:14:29;24.70;70.90
78184;DHT22;67442;44.570;18.610;2023-06-10T09:16:56;24.60;71.00
78184;DHT22;67442;44.570;18.610;2023-06-10T09:19:25;24.60;71.10
78184;DHT22;67442;44.570;18.610;2023-06-10T09:21:53;24.70;71.20
78184;DHT22;67442;44.570;18.610;2023-06-10T09:24:41;24.70;71.30
78184;DHT22;67442;44.570;18.610;2023-06-10T09:27:08;24.70;71.20
78184;DHT22;67442;44.570;18.610;2023-06-10T09:29:53;24.70;71.40
78184;DHT22;67442;44.570;18.610;2023-06-10T09:32:20;24.70;71.30
78184;DHT22;67442;44.570;18.610;2023-06-10T09:34:51;24.70;71.50
78184;DHT22;67442;44.570;18.610;2023-06-10T09:37:24;24.70;71.50
78184;DHT22;67442;44.570;18.610;2023-06-10T09:40:02;24.70;71.60
78184;DHT22;67442;44.570;18.610;2023-06-10T09:42:35;24.70;71.70
78184;DHT22;67442;44.570;18.610;2023-06-10T09:45:05;24.70;71.80
78184;DHT22;67442;44.570;18.610;2023-06-10T09:47:33;24.70;71.70
78184;DHT22;67442;44.570;18.610;2023-06-10T09:50:05;24.70;71.80
78184;DHT22;67442;44.570;18.610;2023-06-10T09:52:33;24.70;71.80
78184;DHT22;67442;44.570;18.610;2023-06-10T09:55:01;24.70;71.60
78184;DHT22;67442;44.570;18.610;2023-06-10T09:57:32;24.70;71.60
78184;DHT22;67442;44.570;18.610;2023-06-10T10:00:05;24.70;71.60
78184;DHT22;67442;44.570;18.610;2023-06-10T10:02:32;24.70;71.60
78184;DHT22;67442;44.570;18.610;2023-06-10T10:05:03;24.70;71.60
78184;DHT22;67442;44.570;18.610;2023-06-10T10:07:31;24.70;71.60
78184;DHT22;67442;44.570;18.610;2023-06-10T10:09:58;24.70;71.50
78184;DHT22;67442;44.570;18.610;2023-06-10T10:12:26;24.70;70.40
78184;DHT22;67442;44.570;18.610;2023-06-10T10:14:57;24.70;69.00
78184;DHT22;67442;44.570;18.610;2023-06-10T10:17:30;24.70;68.10
78184;DHT22;67442;44.570;18.610;2023-06-10T10:20:02;24.70;67.70
78184;DHT22;67442;44.570;18.610;2023-06-10T10:22:49;24.60;67.60
78184;DHT22;67442;44.570;18.610;2023-06-10T10:25:45;24.60;67.40
78184;DHT22;67442;44.570;18.610;2023-06-10T10:28:15;24.60;67.30
78184;DHT22;67442;44.570;18.610;2023-06-10T10:30:50;24.50;67.00
78184;DHT22;67442;44.570;18.610;2023-06-10T10:33:22;24.50;66.80
78184;DHT22;67442;44.570;18.610;2023-06-10T10:35:55;24.50;66.50
78184;DHT22;67442;44.570;18.610;2023-06-10T10:38:23;24.50;66.30
78184;DHT22;67442;44.570;18.610;2023-06-10T10:40:51;24.50;66.10
78184;DHT22;67442;44.570;18.610;2023-06-10T10:43:18;24.40;65.80
78184;DHT22;67442;44.570;18.610;2023-06-10T10:45:59;24.40;65.60
78184;DHT22;67442;44.570;18.610;2023-06-10T10:48:33;24.30;65.30
78184;DHT22;67442;44.570;18.610;2023-06-10T10:51:04;24.30;65.10
78184;DHT22;67442;44.570;18.610;2023-06-10T10:53:32;24.30;64.90
78184;DHT22;67442;44.570;18.610;2023-06-10T12:53:50;23.40;59.90
78184;DHT22;67442;44.570;18.610;2023-06-10T12:56:20;23.40;60.00
78184;DHT22;67442;44.570;18.610;2023-06-10T12:58:48;23.40;60.80
78184;DHT22;67442;44.570;18.610;2023-06-10T13:01:15;23.40;61.70
78184;DHT22;67442;44.570;18.610;2023-06-10T13:03:43;23.50;61.30
78184;DHT22;67442;44.570;18.610;2023-06-10T13:06:10;23.50;61.50
78184;DHT22;67442;44.570;18.610;2023-06-10T13:08:38;23.50;62.00
78184;DHT22;67442;44.570;18.610;2023-06-10T13:11:05;23.50;62.50
78184;DHT22;67442;44.570;18.610;2023-06-10T13:13:37;23.50;62.80
78184;DHT22;67442;44.570;18.610;2023-06-10T13:16:05;23.50;63.00
78184;DHT22;67442;44.570;18.610;2023-06-10T13:18:33;23.60;63.70
78184;DHT22;67442;44.570;18.610;2023-06-10T13:21:04;23.60;64.20
78184;DHT22;67442;44.570;18.610;2023-06-10T13:23:30;23.60;65.10
78184;DHT22;67442;44.570;18.610;2023-06-10T13:25:57;23.60;65.70
78184;DHT22;67442;44.570;18.610;2023-06-10T13:28:28;23.60;66.40
78184;DHT22;67442;44.570;18.610;2023-06-10T13:30:57;23.70;66.90
78184;DHT22;67442;44.570;18.610;2023-06-10T13:33:24;23.70;67.50
78184;DHT22;67442;44.570;18.610;2023-06-10T13:35:52;23.70;67.70
78184;DHT22;67442;44.570;18.610;2023-06-10T13:38:19;23.70;68.00
78184;DHT22;67442;44.570;18.610;2023-06-10T13:40:46;23.80;67.90
78184;DHT22;67442;44.570;18.610;2023-06-10T13:43:14;23.80;67.40
78184;DHT22;67442;44.570;18.610;2023-06-10T13:45:42;23.90;67.50
78184;DHT22;67442;44.570;18.610;2023-06-10T13:48:09;23.90;67.90
78184;DHT22;67442;44.570;18.610;2023-06-10T13:50:38;23.90;67.90
78184;DHT22;67442;44.570;18.610;2023-06-10T13:53:05;23.90;68.00
78184;DHT22;67442;44.570;18.610;2023-06-10T13:55:36;23.90;68.20
78184;DHT22;67442;44.570;18.610;2023-06-10T13:58:07;24.00;67.90
78184;DHT22;67442;44.570;18.610;2023-06-10T14:00:34;24.00;67.50
78184;DHT22;67442;44.570;18.610;2023-06-10T14:03:02;24.00;67.60
78184;DHT22;67442;44.570;18.610;2023-06-10T14:05:36;24.00;67.30
78184;DHT22;67442;44.570;18.610;2023-06-10T14:08:04;24.10;67.20
78184;DHT22;67442;44.570;18.610;2023-06-10T14:10:32;24.10;67.50
78184;DHT22;67442;44.570;18.610;2023-06-10T14:12:59;24.10;67.90
78184;DHT22;67442;44.570;18.610;2023-06-10T14:15:26;24.10;68.10
78184;DHT22;67442;44.570;18.610;2023-06-10T14:17:53;24.10;68.30
78184;DHT22;67442;44.570;18.610;2023-06-10T14:20:24;24.10;67.90
78184;DHT22;67442;44.570;18.610;2023-06-10T14:22:52;24.10;67.60
78184;DHT22;67442;44.570;18.610;2023-06-10T14:25:19;24.20;67.50
78184;DHT22;67442;44.570;18.610;2023-06-10T14:27:45;24.20;67.30
78184;DHT22;67442;44.570;18.610;2023-06-10T14:30:14;24.20;67.30
78184;DHT22;67442;44.570;18.610;2023-06-10T14:32:42;24.20;67.30
78184;DHT22;67442;44.570;18.610;2023-06-10T14:35:08;24.20;67.20
78184;DHT22;67442;44.570;18.610;2023-06-10T14:37:39;24.20;67.10
78184;DHT22;67442;44.570;18.610;2023-06-10T14:40:06;24.20;67.10
78184;DHT22;67442;44.570;18.610;2023-06-10T14:42:39;24.20;67.10
78184;DHT22;67442;44.570;18.610;2023-06-10T14:45:14;24.20;67.10
78184;DHT22;67442;44.570;18.610;2023-06-10T14:47:45;24.30;67.10
78184;DHT22;67442;44.570;18.610;2023-06-10T14:50:13;24.30;67.10
78184;DHT22;67442;44.570;18.610;2023-06-10T14:52:42;24.30;67.20
78184;DHT22;67442;44.570;18.610;2023-06-10T14:55:09;24.30;67.10
78184;DHT22;67442;44.570;18.610;2023-06-10T14:57:36;24.30;67.20
78184;DHT22;67442;44.570;18.610;2023-06-10T15:00:03;24.30;67.20
78184;DHT22;67442;44.570;18.610;2023-06-10T15:02:32;24.30;67.20
78184;DHT22;67442;44.570;18.610;2023-06-10T15:04:59;24.30;67.20
78184;DHT22;67442;44.570;18.610;2023-06-10T15:07:25;24.30;67.20
78184;DHT22;67442;44.570;18.610;2023-06-10T15:09:53;24.30;67.20
78184;DHT22;67442;44.570;18.610;2023-06-10T15:12:20;24.30;67.20
78184;DHT22;67442;44.570;18.610;2023-06-10T15:14:47;24.30;67.20
78184;DHT22;67442;44.570;18.610;2023-06-10T15:17:14;24.30;67.20
78184;DHT22;67442;44.570;18.610;2023-06-10T15:19:42;24.30;67.20
78184;DHT22;67442;44.570;18.610;2023-06-10T15:22:08;24.30;67.30
78184;DHT22;67442;44.570;18.610;2023-06-10T15:24:42;24.30;67.30
78184;DHT22;67442;44.570;18.610;2023-06-10T15:27:09;24.30;67.30
78184;DHT22;67442;44.570;18.610;2023-06-10T15:29:36;24.30;67.30
78184;DHT22;67442;44.570;18.610;2023-06-10T15:32:04;24.30;67.30
78184;DHT22;67442;44.570;18.610;2023-06-10T15:34:32;24.30;67.30
78184;DHT22;67442;44.570;18.610;2023-06-10T15:37:04;24.40;67.30
78184;DHT22;67442;44.570;18.610;2023-06-10T15:39:35;24.30;67.30
78184;DHT22;67442;44.570;18.610;2023-06-10T15:42:03;24.30;67.40
78184;DHT22;67442;44.570;18.610;2023-06-10T15:44:31;24.30;67.40
78184;DHT22;67442;44.570;18.610;2023-06-10T15:46:59;24.40;67.60
78184;DHT22;67442;44.570;18.610;2023-06-10T15:49:25;24.40;67.80
78184;DHT22;67442;44.570;18.610;2023-06-10T15:51:53;24.40;67.10
78184;DHT22;67442;44.570;18.610;2023-06-10T15:54:21;24.40;66.50
78184;DHT22;67442;44.570;18.610;2023-06-10T15:56:48;24.40;66.30
78184;DHT22;67442;44.570;18.610;2023-06-10T15:59:16;24.40;66.70
78184;DHT22;67442;44.570;18.610;2023-06-10T16:01:43;24.30;66.90
78184;DHT22;67442;44.570;18.610;2023-06-10T16:04:10;24.30;66.90
78184;DHT22;67442;44.570;18.610;2023-06-10T16:06:38;24.30;66.90
78184;DHT22;67442;44.570;18.610;2023-06-10T16:09:04;24.30;67.00
78184;DHT22;67442;44.570;18.610;2023-06-10T16:11:32;24.30;67.10
78184;DHT22;67442;44.570;18.610;2023-06-10T16:14:00;24.30;67.10
78184;DHT22;67442;44.570;18.610;2023-06-10T16:16:27;24.30;67.10
78184;DHT22;67442;44.570;18.610;2023-06-10T16:18:54;24.30;67.10
78184;DHT22;67442;44.570;18.610;2023-06-10T16:21:22;24.30;67.00
78184;DHT22;67442;44.570;18.610;2023-06-10T16:23:49;24.30;67.00
78184;DHT22;67442;44.570;18.610;2023-06-10T16:26:20;24.20;67.10
78184;DHT22;67442;44.570;18.610;2023-06-10T16:28:48;24.20;67.40
78184;DHT22;67442;44.570;18.610;2023-06-10T16:31:15;24.20;67.40
78184;DHT22;67442;44.570;18.610;2023-06-10T16:33:43;24.20;68.10
78184;DHT22;67442;44.570;18.610;2023-06-10T16:36:10;24.20;67.40
78184;DHT22;67442;44.570;18.610;2023-06-10T16:38:37;24.20;67.20
78184;DHT22;67442;44.570;18.610;2023-06-10T16:41:05;24.20;67.10
78184;DHT22;67442;44.570;18.610;2023-06-10T16:43:32;24.20;67.00
78184;DHT22;67442;44.570;18.610;2023-06-10T16:45:59;24.20;66.80
78184;DHT22;67442;44.570;18.610;2023-06-10T16:48:30;24.20;66.50
78184;DHT22;67442;44.570;18.610;2023-06-10T16:50:57;24.20;66.30
78184;DHT22;67442;44.570;18.610;2023-06-10T16:53:28;24.20;66.40
78184;DHT22;67442;44.570;18.610;2023-06-10T16:56:01;24.20;66.30
78184;DHT22;67442;44.570;18.610;2023-06-10T16:58:31;24.20;66.20
78184;DHT22;67442;44.570;18.610;2023-06-10T17:01:06;24.20;66.10
78184;DHT22;67442;44.570;18.610;2023-06-10T17:03:33;24.20;65.90
78184;DHT22;67442;44.570;18.610;2023-06-10T17:06:00;24.10;65.80
78184;DHT22;67442;44.570;18.610;2023-06-10T17:08:30;24.10;65.70
78184;DHT22;67442;44.570;18.610;2023-06-10T17:10:57;24.10;65.50
78184;DHT22;67442;44.570;18.610;2023-06-10T17:13:28;24.10;65.40
78184;DHT22;67442;44.570;18.610;2023-06-10T17:15:55;24.10;65.30
78184;DHT22;67442;44.570;18.610;2023-06-10T17:18:23;24.10;65.30
78184;DHT22;67442;44.570;18.610;2023-06-10T17:20:50;24.10;65.30
78184;DHT22;67442;44.570;18.610;2023-06-10T17:23:17;24.10;65.50
78184;DHT22;67442;44.570;18.610;2023-06-10T17:25:44;24.10;65.60
78184;DHT22;67442;44.570;18.610;2023-06-10T17:28:15;24.10;65.60
78184;DHT22;67442;44.570;18.610;2023-06-10T17:30:43;24.10;65.60
78184;DHT22;67442;44.570;18.610;2023-06-10T17:33:11;24.10;65.60
78184;DHT22;67442;44.570;18.610;2023-06-10T17:35:39;24.10;66.30